sensor_id;sensor_type;location;lat;lon;timestamp;P1;durP1;ratioP1;P2;durP2;ratioP2
77061;SDS011;65989;51.686;5.138;2023-07-08T00:01:41;13.00;;;5.37;;
77061;SDS011;65989;51.686;5.138;2023-07-08T00:04:06;12.63;;;5.43;;
77061;SDS011;65989;51.686;5.138;2023-07-08T00:06:32;12.20;;;5.68;;
77061;SDS011;65989;51.686;5.138;2023-07-08T00:08:58;10.20;;;5.27;;
77061;SDS011;65989;51.686;5.138;2023-07-08T00:11:23;8.75;;;5.40;;
77061;SDS011;65989;51.686;5.138;2023-07-08T00:13:49;9.03;;;5.00;;
77061;SDS011;65989;51.686;5.138;2023-07-08T00:16:15;10.33;;;5.10;;
77061;SDS011;65989;51.686;5.138;2023-07-08T00:18:41;9.13;;;5.27;;
77061;SDS011;65989;51.686;5.138;2023-07-08T00:21:08;9.93;;;4.83;;
77061;SDS011;65989;51.686;5.138;2023-07-08T00:23:34;8.00;;;4.88;;
77061;SDS011;65989;51.686;5.138;2023-07-08T00:26:01;10.40;;;4.97;;
77061;SDS011;65989;51.686;5.138;2023-07-08T00:28:26;9.87;;;4.73;;
77061;SDS011;65989;51.686;5.138;2023-07-08T00:30:51;12.27;;;4.73;;
77061;SDS011;65989;51.686;5.138;2023-07-08T00:33:18;7.95;;;4.57;;
77061;SDS011;65989;51.686;5.138;2023-07-08T00:35:43;8.23;;;4.63;;
77061;SDS011;65989;51.686;5.138;2023-07-08T00:40:38;9.32;;;4.45;;
77061;SDS011;65989;51.686;5.138;2023-07-08T00:43:03;7.45;;;4.35;;
77061;SDS011;65989;51.686;5.138;2023-07-08T00:45:43;6.73;;;4.40;;
77061;SDS011;65989;51.686;5.138;2023-07-08T00:48:19;11.45;;;4.70;;
77061;SDS011;65989;51.686;5.138;2023-07-08T00:50:47;10.70;;;4.40;;
77061;SDS011;65989;51.686;5.138;2023-07-08T00:55:47;7.83;;;3.80;;
77061;SDS011;65989;51.686;5.138;2023-07-08T00:58:13;7.55;;;3.97;;
77061;SDS011;65989;51.686;5.138;2023-07-08T01:00:38;9.47;;;4.00;;
77061;SDS011;65989;51.686;5.138;2023-07-08T01:03:03;12.70;;;4.20;;
77061;SDS011;65989;51.686;5.138;2023-07-08T01:05:29;6.23;;;3.97;;
77061;SDS011;65989;51.686;5.138;2023-07-08T01:07:56;7.47;;;4.28;;
77061;SDS011;65989;51.686;5.138;2023-07-08T01:10:26;9.88;;;4.00;;
77061;SDS011;65989;51.686;5.138;2023-07-08T01:12:56;8.50;;;4.05;;
77061;SDS011;65989;51.686;5.138;2023-07-08T01:15:23;7.17;;;4.10;;
77061;SDS011;65989;51.686;5.138;2023-07-08T01:17:51;8.23;;;4.30;;
77061;SDS011;65989;51.686;5.138;2023-07-08T01:20:18;8.18;;;4.35;;
77061;SDS011;65989;51.686;5.138;2023-07-08T01:22:44;9.35;;;3.97;;
77061;SDS011;65989;51.686;5.138;2023-07-08T01:25:09;9.47;;;4.30;;
77061;SDS011;65989;51.686;5.138;2023-07-08T01:27:35;8.33;;;4.00;;
77061;SDS011;65989;51.686;5.138;2023-07-08T01:30:02;9.52;;;4.35;;
77061;SDS011;65989;51.686;5.138;2023-07-08T01:32:28;7.97;;;4.70;;
77061;SDS011;65989;51.686;5.138;2023-07-08T01:34:57;8.88;;;4.28;;
77061;SDS011;65989;51.686;5.138;2023-07-08T01:37:27;7.28;;;3.70;;
77061;SDS011;65989;51.686;5.138;2023-07-08T01:39:53;6.97;;;3.63;;
77061;SDS011;65989;51.686;5.138;2023-07-08T01:42:19;8.40;;;4.37;;
77061;SDS011;65989;51.686;5.138;2023-07-08T01:44:44;7.20;;;3.90;;
77061;SDS011;65989;51.686;5.138;2023-07-08T01:47:16;7.47;;;3.73;;
77061;SDS011;65989;51.686;5.138;2023-07-08T01:49:43;7.33;;;4.00;;
77061;SDS011;65989;51.686;5.138;2023-07-08T01:52:09;8.43;;;3.80;;
77061;SDS011;65989;51.686;5.138;2023-07-08T01:54:35;9.25;;;3.50;;
77061;SDS011;65989;51.686;5.138;2023-07-08T01:57:00;10.03;;;3.83;;
77061;SDS011;65989;51.686;5.138;2023-07-08T01:59:27;9.23;;;4.10;;
77061;SDS011;65989;51.686;5.138;2023-07-08T02:01:53;7.00;;;3.78;;
77061;SDS011;65989;51.686;5.138;2023-07-08T02:04:20;7.45;;;3.60;;
77061;SDS011;65989;51.686;5.138;2023-07-08T02:06:53;7.43;;;3.87;;
77061;SDS011;65989;51.686;5.138;2023-07-08T02:09:19;5.90;;;3.55;;
77061;SDS011;65989;51.686;5.138;2023-07-08T02:11:44;6.70;;;3.63;;
77061;SDS011;65989;51.686;5.138;2023-07-08T02:14:09;8.17;;;3.40;;
77061;SDS011;65989;51.686;5.138;2023-07-08T02:16:34;10.57;;;3.60;;
77061;SDS011;65989;51.686;5.138;2023-07-08T02:19:00;6.03;;;3.70;;
77061;SDS011;65989;51.686;5.138;2023-07-08T02:21:25;8.53;;;3.60;;
77061;SDS011;65989;51.686;5.138;2023-07-08T02:23:50;8.40;;;3.57;;
77061;SDS011;65989;51.686;5.138;2023-07-08T02:26:16;6.45;;;3.40;;
77061;SDS011;65989;51.686;5.138;2023-07-08T02:28:42;7.10;;;3.43;;
77061;SDS011;65989;51.686;5.138;2023-07-08T02:31:07;6.80;;;3.50;;
77061;SDS011;65989;51.686;5.138;2023-07-08T02:33:32;9.13;;;3.73;;
77061;SDS011;65989;51.686;5.138;2023-07-08T02:35:58;7.57;;;3.53;;
77061;SDS011;65989;51.686;5.138;2023-07-08T02:38:23;6.18;;;3.75;;
77061;SDS011;65989;51.686;5.138;2023-07-08T02:40:48;7.50;;;3.60;;
77061;SDS011;65989;51.686;5.138;2023-07-08T02:43:14;7.87;;;3.50;;
77061;SDS011;65989;51.686;5.138;2023-07-08T02:45:39;6.33;;;3.73;;
77061;SDS011;65989;51.686;5.138;2023-07-08T02:48:04;7.77;;;3.70;;
77061;SDS011;65989;51.686;5.138;2023-07-08T02:50:29;6.13;;;3.40;;
77061;SDS011;65989;51.686;5.138;2023-07-08T02:52:55;5.60;;;3.50;;
77061;SDS011;65989;51.686;5.138;2023-07-08T02:55:20;6.53;;;3.70;;
77061;SDS011;65989;51.686;5.138;2023-07-08T02:57:45;7.37;;;3.30;;
77061;SDS011;65989;51.686;5.138;2023-07-08T03:00:11;5.80;;;3.50;;
77061;SDS011;65989;51.686;5.138;2023-07-08T03:02:36;8.75;;;3.80;;
77061;SDS011;65989;51.686;5.138;2023-07-08T03:05:01;7.93;;;3.50;;
77061;SDS011;65989;51.686;5.138;2023-07-08T03:07:30;7.95;;;3.38;;
77061;SDS011;65989;51.686;5.138;2023-07-08T03:09:55;7.97;;;3.67;;
77061;SDS011;65989;51.686;5.138;2023-07-08T03:12:20;9.07;;;3.93;;
77061;SDS011;65989;51.686;5.138;2023-07-08T03:14:45;9.10;;;3.93;;
77061;SDS011;65989;51.686;5.138;2023-07-08T03:17:11;7.53;;;3.47;;
77061;SDS011;65989;51.686;5.138;2023-07-08T03:19:36;9.10;;;3.70;;
77061;SDS011;65989;51.686;5.138;2023-07-08T03:22:01;5.67;;;3.43;;
77061;SDS011;65989;51.686;5.138;2023-07-08T03:24:29;6.80;;;3.60;;
77061;SDS011;65989;51.686;5.138;2023-07-08T03:26:55;9.57;;;3.60;;
77061;SDS011;65989;51.686;5.138;2023-07-08T03:29:20;8.43;;;3.60;;
77061;SDS011;65989;51.686;5.138;2023-07-08T03:31:46;6.30;;;3.55;;
77061;SDS011;65989;51.686;5.138;2023-07-08T03:34:12;7.70;;;3.63;;
77061;SDS011;65989;51.686;5.138;2023-07-08T03:36:42;6.82;;;3.45;;
77061;SDS011;65989;51.686;5.138;2023-07-08T03:39:13;7.78;;;3.83;;
77061;SDS011;65989;51.686;5.138;2023-07-08T03:41:38;6.90;;;3.70;;
77061;SDS011;65989;51.686;5.138;2023-07-08T03:44:03;7.50;;;3.97;;
77061;SDS011;65989;51.686;5.138;2023-07-08T03:46:29;10.17;;;3.70;;
77061;SDS011;65989;51.686;5.138;2023-07-08T03:48:54;8.30;;;4.00;;
77061;SDS011;65989;51.686;5.138;2023-07-08T03:51:23;10.30;;;3.47;;
77061;SDS011;65989;51.686;5.138;2023-07-08T03:53:49;9.43;;;3.53;;
77061;SDS011;65989;51.686;5.138;2023-07-08T03:56:14;7.93;;;3.90;;
77061;SDS011;65989;51.686;5.138;2023-07-08T03:58:40;6.23;;;3.50;;
77061;SDS011;65989;51.686;5.138;2023-07-08T04:01:07;7.57;;;3.73;;
77061;SDS011;65989;51.686;5.138;2023-07-08T04:03:34;7.60;;;3.78;;
77061;SDS011;65989;51.686;5.138;2023-07-08T04:06:00;7.67;;;3.80;;
77061;SDS011;65989;51.686;5.138;2023-07-08T04:08:25;8.00;;;4.00;;
77061;SDS011;65989;51.686;5.138;2023-07-08T04:10:50;9.93;;;3.87;;
77061;SDS011;65989;51.686;5.138;2023-07-08T04:13:15;10.97;;;4.07;;
77061;SDS011;65989;51.686;5.138;2023-07-08T04:15:40;8.07;;;4.00;;
77061;SDS011;65989;51.686;5.138;2023-07-08T04:18:06;10.33;;;4.10;;
77061;SDS011;65989;51.686;5.138;2023-07-08T04:20:31;8.05;;;4.13;;
77061;SDS011;65989;51.686;5.138;2023-07-08T04:22:58;9.30;;;4.10;;
77061;SDS011;65989;51.686;5.138;2023-07-08T04:25:23;8.57;;;4.03;;
77061;SDS011;65989;51.686;5.138;2023-07-08T04:27:49;7.57;;;3.73;;
77061;SDS011;65989;51.686;5.138;2023-07-08T04:30:20;8.33;;;4.10;;
77061;SDS011;65989;51.686;5.138;2023-07-08T04:32:46;9.68;;;3.90;;
77061;SDS011;65989;51.686;5.138;2023-07-08T04:35:11;8.87;;;4.07;;
77061;SDS011;65989;51.686;5.138;2023-07-08T04:37:36;6.97;;;4.03;;
77061;SDS011;65989;51.686;5.138;2023-07-08T04:40:02;10.02;;;4.28;;
77061;SDS011;65989;51.686;5.138;2023-07-08T04:42:30;10.77;;;3.95;;
77061;SDS011;65989;51.686;5.138;2023-07-08T04:44:55;7.13;;;4.10;;
77061;SDS011;65989;51.686;5.138;2023-07-08T04:47:20;6.90;;;4.13;;
77061;SDS011;65989;51.686;5.138;2023-07-08T04:49:45;9.23;;;4.40;;
77061;SDS011;65989;51.686;5.138;2023-07-08T04:52:12;6.78;;;4.28;;
77061;SDS011;65989;51.686;5.138;2023-07-08T04:54:37;9.37;;;4.60;;
77061;SDS011;65989;51.686;5.138;2023-07-08T04:57:02;9.17;;;4.13;;
77061;SDS011;65989;51.686;5.138;2023-07-08T04:59:28;9.20;;;4.20;;
77061;SDS011;65989;51.686;5.138;2023-07-08T05:01:53;8.90;;;4.13;;
77061;SDS011;65989;51.686;5.138;2023-07-08T05:04:20;9.63;;;4.80;;
77061;SDS011;65989;51.686;5.138;2023-07-08T05:06:46;7.23;;;4.30;;
77061;SDS011;65989;51.686;5.138;2023-07-08T05:09:11;8.40;;;4.53;;
77061;SDS011;65989;51.686;5.138;2023-07-08T05:11:37;11.40;;;4.60;;
77061;SDS011;65989;51.686;5.138;2023-07-08T05:14:02;8.80;;;4.30;;
77061;SDS011;65989;51.686;5.138;2023-07-08T05:16:28;7.43;;;4.30;;
77061;SDS011;65989;51.686;5.138;2023-07-08T05:18:53;7.07;;;4.20;;
77061;SDS011;65989;51.686;5.138;2023-07-08T05:21:19;7.73;;;4.33;;
77061;SDS011;65989;51.686;5.138;2023-07-08T05:23:45;7.93;;;4.38;;
77061;SDS011;65989;51.686;5.138;2023-07-08T05:26:10;8.15;;;4.20;;
77061;SDS011;65989;51.686;5.138;2023-07-08T05:28:35;11.40;;;4.20;;
77061;SDS011;65989;51.686;5.138;2023-07-08T05:31:01;6.33;;;3.60;;
77061;SDS011;65989;51.686;5.138;2023-07-08T05:33:27;8.20;;;4.50;;
77061;SDS011;65989;51.686;5.138;2023-07-08T05:35:53;6.57;;;3.90;;
77061;SDS011;65989;51.686;5.138;2023-07-08T05:38:18;6.00;;;3.90;;
77061;SDS011;65989;51.686;5.138;2023-07-08T05:40:48;10.97;;;4.17;;
77061;SDS011;65989;51.686;5.138;2023-07-08T05:43:16;8.07;;;4.30;;
77061;SDS011;65989;51.686;5.138;2023-07-08T05:45:41;7.95;;;3.88;;
77061;SDS011;65989;51.686;5.138;2023-07-08T05:48:07;7.93;;;4.20;;
77061;SDS011;65989;51.686;5.138;2023-07-08T05:50:32;9.20;;;4.10;;
77061;SDS011;65989;51.686;5.138;2023-07-08T05:52:57;8.13;;;4.23;;
77061;SDS011;65989;51.686;5.138;2023-07-08T05:55:22;7.90;;;3.90;;
77061;SDS011;65989;51.686;5.138;2023-07-08T05:57:48;7.13;;;3.47;;
77061;SDS011;65989;51.686;5.138;2023-07-08T06:00:13;9.40;;;4.27;;
77061;SDS011;65989;51.686;5.138;2023-07-08T06:02:38;9.57;;;4.40;;
77061;SDS011;65989;51.686;5.138;2023-07-08T06:05:04;8.47;;;4.00;;
77061;SDS011;65989;51.686;5.138;2023-07-08T06:07:29;12.27;;;4.07;;
77061;SDS011;65989;51.686;5.138;2023-07-08T06:09:54;7.97;;;3.93;;
77061;SDS011;65989;51.686;5.138;2023-07-08T06:12:21;10.95;;;4.45;;
77061;SDS011;65989;51.686;5.138;2023-07-08T06:14:47;7.60;;;4.00;;
77061;SDS011;65989;51.686;5.138;2023-07-08T06:17:12;12.37;;;4.27;;
77061;SDS011;65989;51.686;5.138;2023-07-08T06:19:37;10.37;;;4.10;;
77061;SDS011;65989;51.686;5.138;2023-07-08T06:22:03;11.90;;;4.57;;
77061;SDS011;65989;51.686;5.138;2023-07-08T06:24:28;7.23;;;4.40;;
77061;SDS011;65989;51.686;5.138;2023-07-08T06:26:53;8.93;;;4.37;;
77061;SDS011;65989;51.686;5.138;2023-07-08T06:29:18;8.07;;;4.33;;
77061;SDS011;65989;51.686;5.138;2023-07-08T06:31:44;13.80;;;4.20;;
77061;SDS011;65989;51.686;5.138;2023-07-08T06:34:09;8.60;;;4.73;;
77061;SDS011;65989;51.686;5.138;2023-07-08T06:36:35;8.80;;;4.33;;
77061;SDS011;65989;51.686;5.138;2023-07-08T06:39:00;6.73;;;3.77;;
77061;SDS011;65989;51.686;5.138;2023-07-08T06:41:25;9.00;;;4.40;;
77061;SDS011;65989;51.686;5.138;2023-07-08T06:43:50;7.80;;;4.00;;
77061;SDS011;65989;51.686;5.138;2023-07-08T06:46:16;9.97;;;4.23;;
77061;SDS011;65989;51.686;5.138;2023-07-08T06:48:42;8.80;;;4.45;;
77061;SDS011;65989;51.686;5.138;2023-07-08T06:51:07;8.73;;;4.57;;
77061;SDS011;65989;51.686;5.138;2023-07-08T06:53:32;8.10;;;4.57;;
77061;SDS011;65989;51.686;5.138;2023-07-08T06:55:58;7.57;;;4.90;;
77061;SDS011;65989;51.686;5.138;2023-07-08T06:58:23;9.95;;;4.70;;
77061;SDS011;65989;51.686;5.138;2023-07-08T07:00:48;12.23;;;4.30;;
77061;SDS011;65989;51.686;5.138;2023-07-08T07:03:14;8.10;;;4.33;;
77061;SDS011;65989;51.686;5.138;2023-07-08T07:05:39;9.30;;;4.30;;
77061;SDS011;65989;51.686;5.138;2023-07-08T07:08:04;9.00;;;4.40;;
77061;SDS011;65989;51.686;5.138;2023-07-08T07:10:33;9.27;;;4.23;;
77061;SDS011;65989;51.686;5.138;2023-07-08T07:12:58;11.03;;;4.87;;
77061;SDS011;65989;51.686;5.138;2023-07-08T07:15:24;11.48;;;4.75;;
77061;SDS011;65989;51.686;5.138;2023-07-08T07:17:50;10.40;;;4.83;;
77061;SDS011;65989;51.686;5.138;2023-07-08T07:20:15;9.13;;;4.65;;
77061;SDS011;65989;51.686;5.138;2023-07-08T07:22:41;9.87;;;4.33;;
77061;SDS011;65989;51.686;5.138;2023-07-08T07:25:06;8.27;;;4.57;;
77061;SDS011;65989;51.686;5.138;2023-07-08T07:27:31;12.23;;;4.90;;
77061;SDS011;65989;51.686;5.138;2023-07-08T07:29:57;8.02;;;4.93;;
77061;SDS011;65989;51.686;5.138;2023-07-08T07:32:24;12.50;;;4.80;;
77061;SDS011;65989;51.686;5.138;2023-07-08T07:34:50;7.68;;;4.72;;
77061;SDS011;65989;51.686;5.138;2023-07-08T07:37:16;9.53;;;5.00;;
77061;SDS011;65989;51.686;5.138;2023-07-08T07:39:42;8.35;;;4.75;;
77061;SDS011;65989;51.686;5.138;2023-07-08T07:42:08;9.00;;;4.77;;
77061;SDS011;65989;51.686;5.138;2023-07-08T07:44:34;12.20;;;5.10;;
77061;SDS011;65989;51.686;5.138;2023-07-08T07:46:59;12.57;;;5.00;;
77061;SDS011;65989;51.686;5.138;2023-07-08T07:49:24;11.50;;;5.30;;
77061;SDS011;65989;51.686;5.138;2023-07-08T07:51:49;11.00;;;5.00;;
77061;SDS011;65989;51.686;5.138;2023-07-08T07:54:15;9.73;;;5.00;;
77061;SDS011;65989;51.686;5.138;2023-07-08T07:56:41;10.83;;;5.10;;
77061;SDS011;65989;51.686;5.138;2023-07-08T07:59:06;10.33;;;4.80;;
77061;SDS011;65989;51.686;5.138;2023-07-08T08:01:31;12.63;;;5.13;;
77061;SDS011;65989;51.686;5.138;2023-07-08T08:03:56;9.87;;;5.10;;
77061;SDS011;65989;51.686;5.138;2023-07-08T08:06:22;10.50;;;5.07;;
77061;SDS011;65989;51.686;5.138;2023-07-08T08:08:47;9.73;;;5.67;;
77061;SDS011;65989;51.686;5.138;2023-07-08T08:11:14;8.57;;;5.40;;
77061;SDS011;65989;51.686;5.138;2023-07-08T08:13:39;11.77;;;4.77;;
77061;SDS011;65989;51.686;5.138;2023-07-08T08:16:04;10.27;;;5.67;;
77061;SDS011;65989;51.686;5.138;2023-07-08T08:18:30;12.83;;;5.40;;
77061;SDS011;65989;51.686;5.138;2023-07-08T08:20:56;10.80;;;5.13;;
77061;SDS011;65989;51.686;5.138;2023-07-08T08:23:21;8.97;;;5.53;;
77061;SDS011;65989;51.686;5.138;2023-07-08T08:25:46;9.13;;;5.53;;
77061;SDS011;65989;51.686;5.138;2023-07-08T08:28:12;11.83;;;5.57;;
77061;SDS011;65989;51.686;5.138;2023-07-08T08:30:37;12.43;;;5.43;;
77061;SDS011;65989;51.686;5.138;2023-07-08T08:33:02;13.77;;;5.87;;
77061;SDS011;65989;51.686;5.138;2023-07-08T08:35:31;14.37;;;5.33;;
77061;SDS011;65989;51.686;5.138;2023-07-08T08:37:56;9.27;;;5.68;;
77061;SDS011;65989;51.686;5.138;2023-07-08T08:40:24;12.13;;;5.37;;
77061;SDS011;65989;51.686;5.138;2023-07-08T08:42:53;11.45;;;5.63;;
77061;SDS011;65989;51.686;5.138;2023-07-08T08:45:21;10.82;;;5.60;;
77061;SDS011;65989;51.686;5.138;2023-07-08T08:47:51;14.85;;;6.07;;
77061;SDS011;65989;51.686;5.138;2023-07-08T08:52:49;10.13;;;5.07;;
77061;SDS011;65989;51.686;5.138;2023-07-08T08:55:14;14.50;;;5.60;;
77061;SDS011;65989;51.686;5.138;2023-07-08T09:00:09;10.17;;;5.20;;
77061;SDS011;65989;51.686;5.138;2023-07-08T09:05:05;12.77;;;5.85;;
77061;SDS011;65989;51.686;5.138;2023-07-08T09:07:36;14.15;;;6.03;;
77061;SDS011;65989;51.686;5.138;2023-07-08T09:12:29;11.27;;;6.17;;
77061;SDS011;65989;51.686;5.138;2023-07-08T09:14:56;9.48;;;5.80;;
77061;SDS011;65989;51.686;5.138;2023-07-08T09:17:30;9.53;;;5.80;;
77061;SDS011;65989;51.686;5.138;2023-07-08T09:20:07;15.52;;;5.72;;
77061;SDS011;65989;51.686;5.138;2023-07-08T09:27:40;14.07;;;6.55;;
77061;SDS011;65989;51.686;5.138;2023-07-08T09:30:08;13.60;;;6.50;;
77061;SDS011;65989;51.686;5.138;2023-07-08T09:32:34;13.88;;;6.60;;
77061;SDS011;65989;51.686;5.138;2023-07-08T09:35:04;11.57;;;6.47;;
77061;SDS011;65989;51.686;5.138;2023-07-08T09:37:39;11.23;;;6.72;;
77061;SDS011;65989;51.686;5.138;2023-07-08T09:40:17;13.90;;;6.40;;
77061;SDS011;65989;51.686;5.138;2023-07-08T09:42:43;15.95;;;7.00;;
77061;SDS011;65989;51.686;5.138;2023-07-08T09:45:13;10.50;;;6.57;;
77061;SDS011;65989;51.686;5.138;2023-07-08T09:47:39;12.07;;;6.30;;
77061;SDS011;65989;51.686;5.138;2023-07-08T09:50:19;14.73;;;6.32;;
77061;SDS011;65989;51.686;5.138;2023-07-08T09:52:45;15.40;;;6.88;;
77061;SDS011;65989;51.686;5.138;2023-07-08T09:55:11;17.30;;;6.90;;
77061;SDS011;65989;51.686;5.138;2023-07-08T09:57:37;10.47;;;6.00;;
77061;SDS011;65989;51.686;5.138;2023-07-08T10:00:07;11.77;;;6.57;;
77061;SDS011;65989;51.686;5.138;2023-07-08T10:02:38;13.75;;;7.13;;
77061;SDS011;65989;51.686;5.138;2023-07-08T10:05:38;12.73;;;6.53;;
77061;SDS011;65989;51.686;5.138;2023-07-08T10:07:56;13.85;;;6.68;;
77061;SDS011;65989;51.686;5.138;2023-07-08T10:10:31;15.50;;;6.30;;
77061;SDS011;65989;51.686;5.138;2023-07-08T10:12:59;14.18;;;6.65;;
77061;SDS011;65989;51.686;5.138;2023-07-08T10:18:03;14.50;;;7.00;;
77061;SDS011;65989;51.686;5.138;2023-07-08T10:20:32;21.52;;;6.78;;
77061;SDS011;65989;51.686;5.138;2023-07-08T10:23:22;14.37;;;6.37;;
77061;SDS011;65989;51.686;5.138;2023-07-08T10:26:00;11.82;;;6.90;;
77061;SDS011;65989;51.686;5.138;2023-07-08T10:28:31;11.88;;;6.70;;
77061;SDS011;65989;51.686;5.138;2023-07-08T10:31:09;11.07;;;6.90;;
77061;SDS011;65989;51.686;5.138;2023-07-08T10:36:19;9.80;;;6.27;;
77061;SDS011;65989;51.686;5.138;2023-07-08T10:41:38;13.27;;;7.00;;
77061;SDS011;65989;51.686;5.138;2023-07-08T10:44:17;13.82;;;7.05;;
77061;SDS011;65989;51.686;5.138;2023-07-08T10:49:36;12.60;;;6.90;;
77061;SDS011;65989;51.686;5.138;2023-07-08T10:57:27;13.53;;;6.90;;
77061;SDS011;65989;51.686;5.138;2023-07-08T11:07:42;15.80;;;6.93;;
77061;SDS011;65989;51.686;5.138;2023-07-08T11:10:12;14.77;;;6.97;;
77061;SDS011;65989;51.686;5.138;2023-07-08T11:12:41;13.32;;;6.97;;
77061;SDS011;65989;51.686;5.138;2023-07-08T11:17:42;13.98;;;6.97;;
77061;SDS011;65989;51.686;5.138;2023-07-08T11:22:36;11.80;;;6.70;;
77061;SDS011;65989;51.686;5.138;2023-07-08T11:25:04;11.65;;;6.97;;
77061;SDS011;65989;51.686;5.138;2023-07-08T11:27:33;11.13;;;7.07;;
77061;SDS011;65989;51.686;5.138;2023-07-08T11:30:06;13.38;;;7.00;;
77061;SDS011;65989;51.686;5.138;2023-07-08T11:32:37;12.45;;;7.22;;
77061;SDS011;65989;51.686;5.138;2023-07-08T11:35:03;11.23;;;6.93;;
77061;SDS011;65989;51.686;5.138;2023-07-08T11:37:29;12.93;;;6.57;;
77061;SDS011;65989;51.686;5.138;2023-07-08T11:40:28;12.85;;;7.03;;
77061;SDS011;65989;51.686;5.138;2023-07-08T11:42:50;13.57;;;7.25;;
77061;SDS011;65989;51.686;5.138;2023-07-08T11:47:44;11.13;;;6.75;;
77061;SDS011;65989;51.686;5.138;2023-07-08T11:52:45;15.18;;;7.10;;
77061;SDS011;65989;51.686;5.138;2023-07-08T11:55:21;14.02;;;6.50;;
77061;SDS011;65989;51.686;5.138;2023-07-08T11:57:47;12.97;;;6.17;;
77061;SDS011;65989;51.686;5.138;2023-07-08T12:02:50;15.43;;;6.47;;
77061;SDS011;65989;51.686;5.138;2023-07-08T12:05:16;13.43;;;6.33;;
77061;SDS011;65989;51.686;5.138;2023-07-08T12:07:48;14.45;;;6.53;;
77061;SDS011;65989;51.686;5.138;2023-07-08T12:10:17;16.40;;;6.27;;
77061;SDS011;65989;51.686;5.138;2023-07-08T12:12:44;10.57;;;6.35;;
77061;SDS011;65989;51.686;5.138;2023-07-08T12:17:36;13.40;;;6.00;;
77061;SDS011;65989;51.686;5.138;2023-07-08T12:20:02;14.68;;;7.03;;
77061;SDS011;65989;51.686;5.138;2023-07-08T12:22:28;10.48;;;6.53;;
77061;SDS011;65989;51.686;5.138;2023-07-08T12:24:54;15.23;;;6.67;;
77061;SDS011;65989;51.686;5.138;2023-07-08T12:27:21;14.45;;;6.15;;
77061;SDS011;65989;51.686;5.138;2023-07-08T12:29:46;11.30;;;6.50;;
77061;SDS011;65989;51.686;5.138;2023-07-08T12:32:11;9.40;;;6.10;;
77061;SDS011;65989;51.686;5.138;2023-07-08T12:34:37;15.70;;;6.47;;
77061;SDS011;65989;51.686;5.138;2023-07-08T12:37:03;13.17;;;6.70;;
77061;SDS011;65989;51.686;5.138;2023-07-08T12:39:29;10.20;;;6.45;;
77061;SDS011;65989;51.686;5.138;2023-07-08T12:41:58;10.52;;;6.07;;
77061;SDS011;65989;51.686;5.138;2023-07-08T12:44:24;10.17;;;6.27;;
77061;SDS011;65989;51.686;5.138;2023-07-08T12:46:52;19.85;;;6.75;;
77061;SDS011;65989;51.686;5.138;2023-07-08T12:49:17;17.67;;;6.43;;
77061;SDS011;65989;51.686;5.138;2023-07-08T12:51:45;12.32;;;6.28;;
77061;SDS011;65989;51.686;5.138;2023-07-08T12:54:10;10.63;;;6.13;;
77061;SDS011;65989;51.686;5.138;2023-07-08T12:56:36;12.43;;;6.07;;
77061;SDS011;65989;51.686;5.138;2023-07-08T12:59:02;14.83;;;6.50;;
77061;SDS011;65989;51.686;5.138;2023-07-08T13:01:29;11.48;;;6.68;;
77061;SDS011;65989;51.686;5.138;2023-07-08T13:03:56;13.35;;;6.28;;
77061;SDS011;65989;51.686;5.138;2023-07-08T13:06:25;14.70;;;6.35;;
77061;SDS011;65989;51.686;5.138;2023-07-08T13:08:51;12.60;;;6.35;;
77061;SDS011;65989;51.686;5.138;2023-07-08T13:11:17;12.47;;;6.43;;
77061;SDS011;65989;51.686;5.138;2023-07-08T13:13:47;12.68;;;6.60;;
77061;SDS011;65989;51.686;5.138;2023-07-08T13:16:13;15.85;;;6.55;;
77061;SDS011;65989;51.686;5.138;2023-07-08T13:18:39;13.77;;;6.20;;
77061;SDS011;65989;51.686;5.138;2023-07-08T13:21:06;10.75;;;6.20;;
77061;SDS011;65989;51.686;5.138;2023-07-08T13:23:32;13.23;;;6.50;;
77061;SDS011;65989;51.686;5.138;2023-07-08T13:25:58;10.80;;;6.43;;
77061;SDS011;65989;51.686;5.138;2023-07-08T13:28:27;14.50;;;6.10;;
77061;SDS011;65989;51.686;5.138;2023-07-08T13:30:54;11.15;;;6.10;;
77061;SDS011;65989;51.686;5.138;2023-07-08T13:33:20;11.90;;;6.28;;
77061;SDS011;65989;51.686;5.138;2023-07-08T13:35:46;13.93;;;6.47;;
77061;SDS011;65989;51.686;5.138;2023-07-08T13:38:18;11.20;;;5.90;;
77061;SDS011;65989;51.686;5.138;2023-07-08T13:41:05;11.88;;;6.28;;
77061;SDS011;65989;51.686;5.138;2023-07-08T13:43:36;13.37;;;6.10;;
77061;SDS011;65989;51.686;5.138;2023-07-08T13:46:03;12.45;;;6.05;;
77061;SDS011;65989;51.686;5.138;2023-07-08T13:48:38;13.07;;;6.15;;
77061;SDS011;65989;51.686;5.138;2023-07-08T13:55:59;13.83;;;6.37;;
77061;SDS011;65989;51.686;5.138;2023-07-08T13:58:26;13.43;;;6.55;;
77061;SDS011;65989;51.686;5.138;2023-07-08T14:00:52;15.43;;;6.35;;
77061;SDS011;65989;51.686;5.138;2023-07-08T14:03:17;13.20;;;6.30;;
77061;SDS011;65989;51.686;5.138;2023-07-08T14:05:44;15.40;;;6.90;;
77061;SDS011;65989;51.686;5.138;2023-07-08T14:08:14;15.73;;;6.53;;
77061;SDS011;65989;51.686;5.138;2023-07-08T14:10:39;16.10;;;6.68;;
77061;SDS011;65989;51.686;5.138;2023-07-08T14:13:05;14.53;;;6.83;;
77061;SDS011;65989;51.686;5.138;2023-07-08T14:15:30;11.30;;;6.57;;
77061;SDS011;65989;51.686;5.138;2023-07-08T14:17:57;11.77;;;6.43;;
77061;SDS011;65989;51.686;5.138;2023-07-08T14:20:23;14.73;;;7.00;;
77061;SDS011;65989;51.686;5.138;2023-07-08T14:22:50;13.75;;;6.60;;
77061;SDS011;65989;51.686;5.138;2023-07-08T14:25:16;10.50;;;6.23;;
77061;SDS011;65989;51.686;5.138;2023-07-08T14:27:41;10.57;;;6.32;;
77061;SDS011;65989;51.686;5.138;2023-07-08T14:30:08;15.33;;;6.37;;
77061;SDS011;65989;51.686;5.138;2023-07-08T14:32:34;12.23;;;6.05;;
77061;SDS011;65989;51.686;5.138;2023-07-08T14:35:08;12.63;;;6.70;;
77061;SDS011;65989;51.686;5.138;2023-07-08T14:37:34;14.70;;;6.10;;
77061;SDS011;65989;51.686;5.138;2023-07-08T14:39:59;15.20;;;6.33;;
77061;SDS011;65989;51.686;5.138;2023-07-08T14:42:26;13.20;;;5.68;;
77061;SDS011;65989;51.686;5.138;2023-07-08T14:44:51;13.83;;;5.93;;
77061;SDS011;65989;51.686;5.138;2023-07-08T14:47:18;11.27;;;5.68;;
77061;SDS011;65989;51.686;5.138;2023-07-08T14:49:44;10.00;;;5.57;;
77061;SDS011;65989;51.686;5.138;2023-07-08T14:52:09;13.80;;;6.20;;
77061;SDS011;65989;51.686;5.138;2023-07-08T14:54:34;9.43;;;6.07;;
77061;SDS011;65989;51.686;5.138;2023-07-08T14:57:00;9.03;;;5.57;;
77061;SDS011;65989;51.686;5.138;2023-07-08T14:59:26;12.48;;;5.72;;
77061;SDS011;65989;51.686;5.138;2023-07-08T15:01:54;13.98;;;6.80;;
77061;SDS011;65989;51.686;5.138;2023-07-08T15:04:20;10.93;;;5.77;;
77061;SDS011;65989;51.686;5.138;2023-07-08T15:06:45;15.20;;;5.80;;
77061;SDS011;65989;51.686;5.138;2023-07-08T15:09:11;13.00;;;5.70;;
77061;SDS011;65989;51.686;5.138;2023-07-08T15:11:37;13.23;;;5.72;;
77061;SDS011;65989;51.686;5.138;2023-07-08T15:14:03;11.73;;;6.37;;
77061;SDS011;65989;51.686;5.138;2023-07-08T15:16:29;11.32;;;5.72;;
77061;SDS011;65989;51.686;5.138;2023-07-08T15:18:55;15.10;;;5.90;;
77061;SDS011;65989;51.686;5.138;2023-07-08T15:21:20;11.47;;;6.00;;
77061;SDS011;65989;51.686;5.138;2023-07-08T15:23:45;10.57;;;6.53;;
77061;SDS011;65989;51.686;5.138;2023-07-08T15:26:11;11.33;;;6.23;;
77061;SDS011;65989;51.686;5.138;2023-07-08T15:31:08;30.50;;;10.23;;
77061;SDS011;65989;51.686;5.138;2023-07-08T15:33:34;29.08;;;9.60;;
77061;SDS011;65989;51.686;5.138;2023-07-08T15:36:00;26.47;;;9.53;;
77061;SDS011;65989;51.686;5.138;2023-07-08T15:38:25;13.97;;;6.33;;
77061;SDS011;65989;51.686;5.138;2023-07-08T15:40:50;16.77;;;6.90;;
77061;SDS011;65989;51.686;5.138;2023-07-08T15:43:16;15.27;;;7.07;;
77061;SDS011;65989;51.686;5.138;2023-07-08T15:45:42;14.25;;;7.07;;